FELON13 KTOL-KTOL
Flight info
| Callsign | FELON13 |
|---|---|
| Flight time | N/A |
| Altitude | 32000 |
| Route | DTC YYZ |
| Aircraft | F16/M-F16/S |
Departure
| Time | 2026-04-25 19:35 |
|---|---|
| Airport | Eugene F. Kranz Toledo Express Airport (KTOL) |
Arrival
| Time | N/A |
|---|---|
| Airport | Eugene F. Kranz Toledo Express Airport (KTOL) |
| Time | Latitude | Longitude | Altitude | Speed | Heading |
|---|---|---|---|---|---|
| 2026-04-25 19:33 | 41.58041 | -83.79658 | 672 ft | 0 kts | 156° |
| 2026-04-25 19:33 | 41.58017 | -83.79644 | 672 ft | 14 kts | 156° |
| 2026-04-25 19:33 | 41.57916 | -83.79570 | 671 ft | 15 kts | 120° |
| 2026-04-25 19:33 | 41.57948 | -83.79465 | 671 ft | 13 kts | 25° |
| 2026-04-25 19:34 | 41.57990 | -83.79469 | 671 ft | 0 kts | 338° |
| 2026-04-25 19:34 | 41.58012 | -83.79482 | 671 ft | 14 kts | 339° |
| 2026-04-25 19:34 | 41.58685 | -83.79858 | 677 ft | 212 kts | 337° |
| 2026-04-25 19:35 | 41.60422 | -83.80547 | 1829 ft | 243 kts | 9° |
| 2026-04-25 19:35 | 41.61834 | -83.79358 | 4503 ft | 273 kts | 44° |
| 2026-04-25 19:35 | 41.63350 | -83.77417 | 7936 ft | 360 kts | 42° |
| 2026-04-25 19:35 | 41.65537 | -83.74668 | 10470 ft | 517 kts | 43° |
| 2026-04-25 19:36 | 41.68414 | -83.71053 | 11904 ft | 617 kts | 43° |
| 2026-04-25 19:36 | 41.71594 | -83.67054 | 12029 ft | 598 kts | 43° |
| 2026-04-25 19:36 | 41.74644 | -83.63214 | 12052 ft | 604 kts | 43° |
| 2026-04-25 19:36 | 41.77534 | -83.59465 | 12103 ft | 607 kts | 46° |
| 2026-04-25 19:37 | 41.80385 | -83.54938 | 12174 ft | 609 kts | 53° |
| 2026-04-25 19:37 | 41.82703 | -83.50163 | 12293 ft | 615 kts | 60° |
| 2026-04-25 19:37 | 41.84656 | -83.45045 | 12394 ft | 619 kts | 63° |
| 2026-04-25 19:37 | 41.86549 | -83.39931 | 12399 ft | 621 kts | 63° |
| 2026-04-25 19:38 | 41.88473 | -83.34734 | 12364 ft | 623 kts | 63° |
| 2026-04-25 19:38 | 41.90397 | -83.29531 | 12296 ft | 624 kts | 63° |
| 2026-04-25 19:38 | 41.92328 | -83.24304 | 12194 ft | 625 kts | 63° |
| 2026-04-25 19:38 | 41.94255 | -83.19087 | 12045 ft | 622 kts | 63° |
| 2026-04-25 19:39 | 41.96174 | -83.13889 | 11873 ft | 620 kts | 63° |
| 2026-04-25 19:39 | 41.98056 | -83.08788 | 11740 ft | 619 kts | 63° |
| 2026-04-25 19:39 | 41.99959 | -83.03625 | 11877 ft | 615 kts | 62° |
| 2026-04-25 19:39 | 42.01859 | -82.98470 | 11962 ft | 614 kts | 62° |
| 2026-04-25 19:40 | 42.03671 | -82.93550 | 12002 ft | 614 kts | 62° |
| 2026-04-25 19:40 | 42.05564 | -82.88409 | 12028 ft | 614 kts | 62° |
| 2026-04-25 19:40 | 42.07460 | -82.83260 | 12014 ft | 614 kts | 62° |
| 2026-04-25 19:40 | 42.09357 | -82.78108 | 11990 ft | 614 kts | 62° |
| 2026-04-25 19:41 | 42.11253 | -82.72958 | 11991 ft | 614 kts | 62° |
| 2026-04-25 19:41 | 42.13254 | -82.67537 | 11963 ft | 715 kts | 62° |
| 2026-04-25 19:41 | 42.15682 | -82.61021 | 11930 ft | 833 kts | 62° |
| 2026-04-25 19:41 | 42.17472 | -82.56238 | 11882 ft | 891 kts | 62° |
| 2026-04-25 19:42 | 42.21434 | -82.45691 | 11640 ft | 988 kts | 62° |
| 2026-04-25 19:42 | 42.24133 | -82.38476 | 11424 ft | 836 kts | 62° |
| 2026-04-25 19:42 | 42.26602 | -82.31845 | 11331 ft | 753 kts | 62° |
| 2026-04-25 19:42 | 42.28865 | -82.25738 | 11225 ft | 708 kts | 62° |
| 2026-04-25 19:43 | 42.31021 | -82.19901 | 11265 ft | 684 kts | 62° |
| 2026-04-25 19:43 | 42.33125 | -82.14198 | 11260 ft | 673 kts | 62° |
| 2026-04-25 19:43 | 42.35202 | -82.08559 | 11216 ft | 668 kts | 62° |
| 2026-04-25 19:43 | 42.37268 | -82.02947 | 11136 ft | 666 kts | 62° |
| 2026-04-25 19:44 | 42.39327 | -81.97353 | 11014 ft | 665 kts | 62° |
| 2026-04-25 19:44 | 42.41366 | -81.91822 | 10947 ft | 664 kts | 62° |
| 2026-04-25 19:44 | 42.43440 | -81.86236 | 10928 ft | 663 kts | 62° |
| 2026-04-25 19:44 | 42.45515 | -81.80671 | 11045 ft | 661 kts | 61° |
| 2026-04-25 19:45 | 42.47585 | -81.75125 | 11131 ft | 660 kts | 61° |
| 2026-04-25 19:45 | 42.49658 | -81.69573 | 11193 ft | 660 kts | 61° |
| 2026-04-25 19:45 | 42.51731 | -81.64022 | 11215 ft | 671 kts | 61° |
| 2026-04-25 19:45 | 42.54096 | -81.57750 | 11233 ft | 812 kts | 61° |
| 2026-04-25 19:46 | 42.56841 | -81.50544 | 11233 ft | 897 kts | 61° |
| 2026-04-25 19:46 | 42.59600 | -81.43327 | 11196 ft | 906 kts | 61° |
| 2026-04-25 19:46 | 42.62655 | -81.35340 | 11077 ft | 918 kts | 61° |
| 2026-04-25 19:46 | 42.65579 | -81.27702 | 10900 ft | 930 kts | 61° |
| 2026-04-25 19:47 | 42.68579 | -81.19868 | 10817 ft | 939 kts | 61° |
| 2026-04-25 19:47 | 42.71607 | -81.11964 | 10814 ft | 945 kts | 61° |
| 2026-04-25 19:47 | 42.74644 | -81.04035 | 10692 ft | 944 kts | 60° |
| 2026-04-25 19:47 | 42.77484 | -80.96585 | 10512 ft | 862 kts | 60° |
| 2026-04-25 19:48 | 42.80230 | -80.89362 | 10749 ft | 859 kts | 60° |
| 2026-04-25 19:48 | 42.83031 | -80.82001 | 10914 ft | 913 kts | 60° |
| 2026-04-25 19:48 | 42.85885 | -80.74508 | 11021 ft | 844 kts | 60° |
| 2026-04-25 19:48 | 42.88418 | -80.67799 | 11063 ft | 774 kts | 60° |
| 2026-04-25 19:49 | 42.90790 | -80.61465 | 11072 ft | 733 kts | 60° |
| 2026-04-25 19:49 | 42.92334 | -80.57323 | 11079 ft | 718 kts | 60° |
| 2026-04-25 19:49 | 42.95298 | -80.49351 | 11030 ft | 706 kts | 60° |
| 2026-04-25 19:49 | 42.97518 | -80.43372 | 10957 ft | 703 kts | 60° |
| 2026-04-25 19:50 | 43.01930 | -80.31475 | 10724 ft | 702 kts | 60° |
| 2026-04-25 19:50 | 43.04054 | -80.25746 | 10572 ft | 702 kts | 60° |
| 2026-04-25 19:50 | 43.06382 | -80.19499 | 10481 ft | 800 kts | 60° |
| 2026-04-25 19:51 | 43.08954 | -80.12697 | 10499 ft | 899 kts | 60° |
| 2026-04-25 19:51 | 43.11982 | -80.04735 | 10442 ft | 872 kts | 60° |
| 2026-04-25 19:51 | 43.14565 | -79.97863 | 10324 ft | 763 kts | 60° |
| 2026-04-25 19:51 | 43.17263 | -79.92175 | 10654 ft | 691 kts | 45° |
| 2026-04-25 19:52 | 43.20814 | -79.87953 | 11651 ft | 650 kts | 33° |
| 2026-04-25 19:52 | 43.24613 | -79.84809 | 12392 ft | 632 kts | 25° |
| 2026-04-25 19:52 | 43.28530 | -79.82132 | 12580 ft | 624 kts | 24° |
| 2026-04-25 19:52 | 43.32100 | -79.80075 | 9568 ft | 509 kts | 9° |
| 2026-04-25 19:53 | 43.35460 | -79.79296 | 5722 ft | 423 kts | 10° |
| 2026-04-25 19:53 | 43.37522 | -79.78807 | 3455 ft | 226 kts | 12° |
| 2026-04-25 19:53 | 43.38977 | -79.78699 | 2452 ft | 188 kts | 5° |
| 2026-04-25 19:53 | 43.40183 | -79.78470 | 1707 ft | 192 kts | 15° |
| 2026-04-25 19:54 | 43.41590 | -79.78374 | 1424 ft | 204 kts | 347° |
| 2026-04-25 19:54 | 43.42872 | -79.78988 | 1368 ft | 192 kts | 345° |
| 2026-04-25 19:54 | 43.44129 | -79.79434 | 1430 ft | 176 kts | 7° |
| 2026-04-25 19:54 | 43.44905 | -79.79251 | 1458 ft | 170 kts | 15° |
| 2026-04-25 19:55 | 43.46656 | -79.78547 | 1490 ft | 242 kts | 19° |
| 2026-04-25 19:55 | 43.48034 | -79.77911 | 1521 ft | 257 kts | 20° |
| 2026-04-25 19:55 | 43.49849 | -79.77070 | 1601 ft | 272 kts | 20° |
| 2026-04-25 19:55 | 43.51683 | -79.76220 | 1704 ft | 284 kts | 20° |
| 2026-04-25 19:56 | 43.53612 | -79.75328 | 1713 ft | 299 kts | 20° |
| 2026-04-25 19:56 | 43.55357 | -79.74526 | 1598 ft | 197 kts | 20° |
| 2026-04-25 19:56 | 43.56486 | -79.73923 | 1390 ft | 176 kts | 25° |
| 2026-04-25 19:56 | 43.57651 | -79.73198 | 1345 ft | 187 kts | 25° |
| 2026-04-25 19:57 | 43.58779 | -79.72448 | 1308 ft | 178 kts | 34° |
| 2026-04-25 19:57 | 43.59622 | -79.71286 | 1275 ft | 167 kts | 47° |
| 2026-04-25 19:57 | 43.60374 | -79.70109 | 1235 ft | 161 kts | 46° |
| 2026-04-25 19:57 | 43.61089 | -79.68993 | 1163 ft | 154 kts | 46° |
| 2026-04-25 19:58 | 43.61846 | -79.67880 | 1066 ft | 162 kts | 45° |
| 2026-04-25 19:58 | 43.62602 | -79.66772 | 1002 ft | 153 kts | 46° |
| 2026-04-25 19:58 | 43.63354 | -79.65691 | 915 ft | 156 kts | 44° |
| 2026-04-25 19:58 | 43.64117 | -79.64605 | 883 ft | 156 kts | 44° |
| 2026-04-25 19:59 | 43.64850 | -79.63561 | 725 ft | 159 kts | 44° |
| 2026-04-25 19:59 | 43.65615 | -79.62486 | 630 ft | 164 kts | 46° |
| 2026-04-25 19:59 | 43.66313 | -79.61481 | 538 ft | 110 kts | 46° |
| 2026-04-25 19:59 | 43.66640 | -79.61016 | 546 ft | 47 kts | 45° |
| 2026-04-25 20:00 | 43.66847 | -79.60724 | 547 ft | 37 kts | 46° |
| 2026-04-25 20:00 | 43.66980 | -79.60587 | 546 ft | 34 kts | 24° |
| 2026-04-25 20:00 | 43.67234 | -79.60540 | 546 ft | 27 kts | 312° |
| 2026-04-25 20:00 | 43.67355 | -79.60712 | 545 ft | 18 kts | 316° |
| 2026-04-25 20:01 | 43.67312 | -79.60928 | 544 ft | 18 kts | 226° |
| 2026-04-25 20:01 | 43.67207 | -79.61085 | 544 ft | 20 kts | 227° |
| 2026-04-25 20:01 | 43.67149 | -79.61233 | 548 ft | 15 kts | 308° |
| 2026-04-25 20:02 | 43.67274 | -79.61394 | 549 ft | 39 kts | 316° |
| 2026-04-25 20:02 | 43.67460 | -79.61638 | 554 ft | 34 kts | 316° |
| 2026-04-25 20:02 | 43.67633 | -79.61864 | 558 ft | 37 kts | 316° |
| 2026-04-25 20:02 | 43.67819 | -79.62107 | 556 ft | 34 kts | 319° |
| 2026-04-25 20:03 | 43.68000 | -79.62279 | 556 ft | 30 kts | 314° |
| 2026-04-25 20:03 | 43.68157 | -79.62482 | 561 ft | 32 kts | 316° |
| 2026-04-25 20:03 | 43.68306 | -79.62671 | 563 ft | 29 kts | 316° |
| 2026-04-25 20:03 | 43.68451 | -79.62863 | 560 ft | 29 kts | 316° |
| 2026-04-25 20:04 | 43.68594 | -79.63053 | 558 ft | 28 kts | 314° |
| 2026-04-25 20:04 | 43.68729 | -79.63236 | 560 ft | 26 kts | 314° |
| 2026-04-25 20:04 | 43.68858 | -79.63404 | 563 ft | 24 kts | 318° |
| 2026-04-25 20:04 | 43.68981 | -79.63555 | 568 ft | 24 kts | 318° |
| 2026-04-25 20:05 | 43.69098 | -79.63708 | 564 ft | 23 kts | 317° |
| 2026-04-25 20:05 | 43.69217 | -79.63862 | 561 ft | 24 kts | 314° |
| 2026-04-25 20:05 | 43.69342 | -79.64020 | 559 ft | 25 kts | 318° |
| 2026-04-25 20:05 | 43.69337 | -79.64218 | 567 ft | 23 kts | 243° |
| 2026-04-25 20:06 | 43.69228 | -79.64392 | 565 ft | 25 kts | 228° |
| 2026-04-25 20:06 | 43.69103 | -79.64577 | 566 ft | 28 kts | 226° |
| 2026-04-25 20:06 | 43.68979 | -79.64778 | 564 ft | 22 kts | 260° |
| 2026-04-25 20:06 | 43.68974 | -79.64947 | 562 ft | 20 kts | 228° |
| 2026-04-25 20:07 | 43.68940 | -79.65095 | 564 ft | 13 kts | 312° |
| 2026-04-25 20:07 | 43.68949 | -79.65122 | 561 ft | 0 kts | 185° |
| 2026-04-25 20:08 | 43.68940 | -79.65115 | 562 ft | 8 kts | 136° |
| 2026-04-25 20:08 | 43.68953 | -79.64966 | 563 ft | 22 kts | 44° |
| 2026-04-25 20:08 | 43.68992 | -79.64836 | 564 ft | 14 kts | 134° |
| 2026-04-25 20:09 | 43.68895 | -79.64871 | 559 ft | 27 kts | 228° |
| 2026-04-25 20:09 | 43.68745 | -79.65067 | 557 ft | 24 kts | 222° |
| 2026-04-25 20:09 | 43.68626 | -79.65227 | 562 ft | 24 kts | 226° |
| 2026-04-25 20:09 | 43.68488 | -79.65278 | 557 ft | 25 kts | 181° |
| 2026-04-25 20:10 | 43.68296 | -79.65459 | 564 ft | 39 kts | 226° |
| 2026-04-25 20:10 | 43.68112 | -79.65726 | 565 ft | 41 kts | 226° |
| 2026-04-25 20:10 | 43.67890 | -79.66050 | 567 ft | 48 kts | 226° |
| 2026-04-25 20:10 | 43.67673 | -79.66368 | 568 ft | 44 kts | 226° |
| 2026-04-25 20:11 | 43.67519 | -79.66522 | 569 ft | 21 kts | 151° |
| 2026-04-25 20:11 | 43.67460 | -79.66344 | 570 ft | 26 kts | 54° |
| 2026-04-25 20:11 | 43.67943 | -79.65636 | 561 ft | 207 kts | 46° |
| 2026-04-25 20:11 | 43.69433 | -79.63458 | 1413 ft | 417 kts | 46° |
| 2026-04-25 20:12 | 43.71883 | -79.59893 | 3289 ft | 614 kts | 47° |
| 2026-04-25 20:12 | 43.74854 | -79.55687 | 5596 ft | 631 kts | 45° |
| 2026-04-25 20:12 | 43.77894 | -79.51560 | 7886 ft | 599 kts | 43° |
| 2026-04-25 20:12 | 43.79878 | -79.48973 | 9405 ft | 582 kts | 41° |
| 2026-04-25 20:13 | 43.83769 | -79.44116 | 12321 ft | 559 kts | 40° |
| 2026-04-25 20:13 | 43.86465 | -79.40309 | 14611 ft | 555 kts | 45° |
| 2026-04-25 20:13 | 43.88853 | -79.36138 | 16949 ft | 549 kts | 51° |
| 2026-04-25 20:13 | 43.90772 | -79.31987 | 18635 ft | 532 kts | 54° |
| 2026-04-25 20:14 | 43.92560 | -79.27977 | 18050 ft | 446 kts | 52° |
| 2026-04-25 20:14 | 43.94039 | -79.24721 | 18071 ft | 357 kts | 51° |
| 2026-04-25 20:14 | 43.95224 | -79.22129 | 17977 ft | 288 kts | 50° |
| 2026-04-25 20:14 | 43.96269 | -79.19810 | 17973 ft | 283 kts | 50° |
| 2026-04-25 20:15 | 43.97319 | -79.17497 | 18015 ft | 294 kts | 50° |
| 2026-04-25 20:15 | 43.98651 | -79.14716 | 18086 ft | 409 kts | 50° |
| 2026-04-25 20:15 | 44.00586 | -79.10948 | 18128 ft | 536 kts | 50° |
| 2026-04-25 20:15 | 44.02988 | -79.06423 | 18182 ft | 625 kts | 50° |
| 2026-04-25 20:16 | 44.05507 | -79.01466 | 18149 ft | 629 kts | 54° |
| 2026-04-25 20:16 | 44.07642 | -78.96138 | 18104 ft | 633 kts | 61° |
| 2026-04-25 20:16 | 44.09271 | -78.90410 | 17958 ft | 653 kts | 69° |
| 2026-04-25 20:16 | 44.10453 | -78.83959 | 17805 ft | 725 kts | 76° |
| 2026-04-25 20:17 | 44.11179 | -78.76857 | 17646 ft | 772 kts | 81° |
| 2026-04-25 20:17 | 44.11795 | -78.69157 | 17629 ft | 846 kts | 81° |
| 2026-04-25 20:17 | 44.12496 | -78.60579 | 17604 ft | 939 kts | 82° |
| 2026-04-25 20:17 | 44.13149 | -78.51336 | 17704 ft | 946 kts | 86° |
| 2026-04-25 20:18 | 44.12911 | -78.42608 | 17777 ft | 861 kts | 95° |
| 2026-04-25 20:18 | 44.11951 | -78.34780 | 17795 ft | 783 kts | 102° |
| 2026-04-25 20:18 | 44.10708 | -78.27740 | 17513 ft | 718 kts | 105° |
| 2026-04-25 20:18 | 44.09255 | -78.21366 | 15575 ft | 668 kts | 107° |
| 2026-04-25 20:19 | 44.07693 | -78.15499 | 13268 ft | 628 kts | 109° |
| 2026-04-25 20:19 | 44.06220 | -78.10045 | 11445 ft | 592 kts | 110° |
| 2026-04-25 20:19 | 44.05046 | -78.04801 | 9319 ft | 527 kts | 92° |
| 2026-04-25 20:19 | 44.04985 | -77.99986 | 3671 ft | 494 kts | 91° |
| 2026-04-25 20:20 | 44.04969 | -77.95487 | 1356 ft | 419 kts | 90° |
| 2026-04-25 20:20 | 44.04955 | -77.92015 | 1034 ft | 328 kts | 89° |
| 2026-04-25 20:20 | 44.05070 | -77.89191 | 1003 ft | 236 kts | 83° |
| 2026-04-25 20:20 | 44.05200 | -77.87253 | 938 ft | 173 kts | 87° |
| 2026-04-25 20:21 | 44.05223 | -77.85728 | 912 ft | 150 kts | 91° |
| 2026-04-25 20:21 | 44.05003 | -77.84329 | 853 ft | 153 kts | 118° |
| 2026-04-25 20:21 | 44.04674 | -77.82936 | 859 ft | 157 kts | 99° |
| 2026-04-25 20:21 | 44.04469 | -77.81333 | 1002 ft | 178 kts | 100° |
| 2026-04-25 20:22 | 44.04150 | -77.79404 | 1265 ft | 225 kts | 106° |
| 2026-04-25 20:22 | 44.03832 | -77.77971 | 1518 ft | 246 kts | 106° |
| 2026-04-25 20:22 | 44.03108 | -77.74484 | 1359 ft | 312 kts | 103° |
| 2026-04-25 20:22 | 44.02667 | -77.71341 | 1491 ft | 351 kts | 98° |
| 2026-04-25 20:23 | 44.02476 | -77.68015 | 1653 ft | 382 kts | 87° |
| 2026-04-25 20:23 | 44.03030 | -77.64107 | 1884 ft | 413 kts | 70° |
| 2026-04-25 20:23 | 44.04855 | -77.61112 | 2241 ft | 427 kts | 36° |
| 2026-04-25 20:23 | 44.06966 | -77.59386 | 2031 ft | 257 kts | 27° |
| 2026-04-25 20:24 | 44.08348 | -77.58597 | 1654 ft | 194 kts | 30° |
| 2026-04-25 20:24 | 44.09322 | -77.57397 | 1097 ft | 190 kts | 54° |
| 2026-04-25 20:24 | 44.10186 | -77.55799 | 676 ft | 226 kts | 54° |
| 2026-04-25 20:24 | 44.11276 | -77.53916 | 342 ft | 266 kts | 51° |
| 2026-04-25 20:25 | 44.12298 | -77.52188 | 285 ft | 172 kts | 50° |
| 2026-04-25 20:25 | 44.12791 | -77.51306 | 289 ft | 59 kts | 56° |
| 2026-04-25 20:25 | 44.12867 | -77.51157 | 291 ft | 0 kts | 54° |
| 2026-04-25 20:25 | 44.12987 | -77.50948 | 291 ft | 118 kts | 50° |
| 2026-04-25 20:26 | 44.13054 | -77.50819 | 300 ft | 0 kts | 302° |